Time;durP1;ratioP1;P1;durP2;ratioP2;P2;SDS_P1;SDS_P2;PMS_P1;PMS_P2;Temp;Humidity;BMP_temperature;BMP_pressure;BME280_temperature;BME280_humidity;BME280_pressure;Samples;Min_cycle;Max_cycle;Signal;HPM_P1;HPM_P2
2023/08/16 00:01:25;;;;;;;35.75;32.73;;;;;;;21.62;55.97;100634.63;1829835;78;25380;-42
2023/08/16 00:03:51;;;;;;;18.50;10.00;;;;;;;21.59;56.29;100632.63;1829950;77;25602;-42
2023/08/16 00:06:17;;;;;;;17.87;9.83;;;;;;;21.56;56.34;100638.09;1829892;78;27554;-44
2023/08/16 00:08:43;;;;;;;19.07;12.78;;;;;;;21.51;56.34;100637.83;1829771;77;25505;-45
2023/08/16 00:11:10;;;;;;;19.82;11.57;;;;;;;21.48;56.78;100629.53;1829815;77;25550;-42
2023/08/16 00:13:37;;;;;;;18.07;13.13;;;;;;;21.41;56.92;100629.62;1829852;78;25410;-42
2023/08/16 00:16:05;;;;;;;22.27;12.95;;;;;;;21.38;56.62;100630.36;1829898;77;25366;-42
2023/08/16 00:18:31;;;;;;;16.90;10.43;;;;;;;21.34;56.94;100636.41;1829858;77;28081;-42
2023/08/16 00:21:01;;;;;;;18.37;11.30;;;;;;;21.32;57.46;100635.19;1829690;78;25474;-42
2023/08/16 00:23:27;;;;;;;14.03;11.70;;;;;;;21.30;57.57;100638.91;1830005;77;25561;-41
2023/08/16 00:25:53;;;;;;;22.10;19.87;;;;;;;21.25;57.49;100630.42;1829875;78;25632;-42
2023/08/16 00:28:19;;;;;;;33.92;30.52;;;;;;;21.22;57.52;100630.56;1829869;78;25372;-42
2023/08/16 00:30:45;;;;;;;26.70;21.95;;;;;;;21.17;57.55;100626.77;1829828;78;27498;-43
2023/08/16 00:33:11;;;;;;;23.80;19.27;;;;;;;21.14;58.00;100622.59;1829797;77;25611;-42
2023/08/16 00:35:37;;;;;;;18.25;10.93;;;;;;;21.11;57.94;100628.25;1829824;78;25606;-42
2023/08/16 00:38:04;;;;;;;19.20;13.25;;;;;;;21.08;58.26;100623.52;1829789;78;25578;-49
2023/08/16 00:40:30;;;;;;;15.45;9.00;;;;;;;21.04;58.21;100624.84;1829845;78;25523;-41
2023/08/16 00:42:57;;;;;;;17.62;10.78;;;;;;;21.00;58.33;100623.20;1829895;78;27474;-43
2023/08/16 00:45:23;;;;;;;21.62;11.50;;;;;;;20.96;58.77;100619.03;1829764;78;25748;-46
2023/08/16 00:47:50;;;;;;;17.02;9.90;;;;;;;20.94;58.48;100617.22;1829840;77;25592;-42
2023/08/16 00:50:17;;;;;;;18.12;10.85;;;;;;;20.89;58.60;100614.23;1829819;77;25432;-43
2023/08/16 00:52:44;;;;;;;13.93;9.03;;;;;;;20.86;58.87;100614.97;1829863;78;25345;-42
2023/08/16 00:55:11;;;;;;;16.93;9.88;;;;;;;20.84;59.14;100613.17;1829932;77;27469;-43
2023/08/16 00:57:38;;;;;;;13.60;8.75;;;;;;;20.81;58.89;100610.37;1828907;78;25523;-42
2023/08/16 01:00:07;;;;;;;14.05;10.05;;;;;;;20.79;59.40;100610.75;1803105;78;25393;-42
2023/08/16 01:02:33;;;;;;;11.35;8.18;;;;;;;20.75;59.24;100609.88;1823846;78;25660;-44
2023/08/16 01:05:00;;;;;;;15.15;8.90;;;;;;;20.73;59.38;100612.81;1823772;78;25581;-43
2023/08/16 01:07:27;;;;;;;14.58;9.63;;;;;;;20.68;59.55;100613.31;1823750;77;27336;-42
2023/08/16 01:09:53;;;;;;;15.45;8.85;;;;;;;20.66;59.45;100610.75;1823668;78;25538;-43
2023/08/16 01:12:51;;;;;;;15.88;9.28;;;;;;;20.62;59.68;100612.06;1823757;78;25614;-42
2023/08/16 01:15:34;;;;;;;13.95;8.85;;;;;;;20.58;59.85;100607.64;1823742;78;25608;-41
2023/08/16 01:18:02;;;;;;;13.88;8.88;;;;;;;20.54;60.30;100599.34;1784358;78;25492;-44
2023/08/16 01:20:31;;;;;;;13.72;9.58;;;;;;;20.49;60.08;100603.78;1823832;78;28073;-45
2023/08/16 01:23:35;;;;;;;12.50;9.10;;;;;;;20.45;60.26;100603.73;1830570;78;25478;-42
2023/08/16 01:26:18;;;;;;;14.35;8.93;;;;;;;20.42;60.61;100601.72;1823714;78;25450;-42
2023/08/16 01:28:47;;;;;;;15.58;9.05;;;;;;;20.36;60.86;100602.39;1823681;78;25574;-42
2023/08/16 01:31:14;;;;;;;15.95;9.20;;;;;;;20.29;60.99;100596.98;1823983;78;25419;-42
2023/08/16 01:33:40;;;;;;;12.93;9.00;;;;;;;20.27;61.13;100605.39;1823880;78;27463;-41
2023/08/16 01:36:07;;;;;;;13.93;9.13;;;;;;;20.23;61.01;100610.05;1823741;78;25532;-43
2023/08/16 01:38:34;;;;;;;14.85;9.63;;;;;;;20.20;60.86;100617.64;1823691;78;25456;-43
2023/08/16 01:41:17;;;;;;;18.35;9.45;;;;;;;20.17;61.25;100627.98;1823695;78;25829;-43
2023/08/16 01:43:45;;;;;;;14.00;8.98;;;;;;;20.11;61.52;100630.25;1823799;78;25408;-42
2023/08/16 01:46:13;;;;;;;11.85;8.78;;;;;;;20.05;61.69;100624.83;1803059;78;27260;-42
2023/08/16 01:48:40;;;;;;;12.68;9.28;;;;;;;19.98;61.44;100622.75;1803018;78;25408;-41
2023/08/16 01:51:07;;;;;;;15.15;12.20;;;;;;;19.93;61.41;100617.56;1823715;77;25588;-41
2023/08/16 01:53:35;;;;;;;16.30;11.95;;;;;;;19.89;61.62;100622.20;1823696;78;25565;-43
2023/08/16 01:56:02;;;;;;;12.47;9.40;;;;;;;19.86;62.03;100620.19;1823754;78;25558;-41
2023/08/16 01:58:28;;;;;;;14.23;10.05;;;;;;;19.80;62.14;100622.41;1803044;78;28121;-41
2023/08/16 02:00:54;;;;;;;17.20;10.55;;;;;;;19.75;62.32;100624.08;1823644;78;25893;-42
2023/08/16 02:03:21;;;;;;;19.90;16.12;;;;;;;19.71;62.30;100623.98;1823707;78;25540;-41
2023/08/16 02:05:47;;;;;;;20.62;13.68;;;;;;;19.67;62.94;100623.72;1823639;78;25479;-44
2023/08/16 02:08:13;;;;;;;12.47;9.38;;;;;;;19.62;63.16;100626.17;1823680;78;25630;-42
2023/08/16 02:10:40;;;;;;;13.25;9.78;;;;;;;19.57;63.26;100627.84;1823691;78;27454;-41
2023/08/16 02:13:06;;;;;;;17.17;10.58;;;;;;;19.53;62.90;100622.28;1823578;78;25371;-41
2023/08/16 02:15:32;;;;;;;12.33;10.28;;;;;;;19.51;63.32;100622.42;1823665;78;25376;-41
2023/08/16 02:17:59;;;;;;;15.60;9.80;;;;;;;19.47;63.49;100618.82;1823630;78;26141;-42
2023/08/16 02:20:25;;;;;;;15.63;9.08;;;;;;;19.43;63.32;100614.64;1823693;78;25376;-43
2023/08/16 02:22:52;;;;;;;14.90;8.85;;;;;;;19.39;63.54;100613.75;1823653;78;27488;-44
2023/08/16 02:25:18;;;;;;;13.70;8.53;;;;;;;19.36;63.71;100616.66;1823511;78;25782;-43
2023/08/16 02:27:44;;;;;;;15.32;9.23;;;;;;;19.33;63.74;100615.22;1823649;78;25364;-42
2023/08/16 02:30:11;;;;;;;12.95;8.73;;;;;;;19.30;63.77;100609.86;1823620;78;25556;-42
2023/08/16 02:32:37;;;;;;;11.40;9.33;;;;;;;19.28;63.63;100610.02;1803103;78;25644;-42
2023/08/16 02:35:04;;;;;;;12.47;8.80;;;;;;;19.25;63.73;100615.63;1823686;78;27442;-42
2023/08/16 02:37:30;;;;;;;12.23;8.73;;;;;;;19.23;63.91;100611.88;1823541;78;25582;-43
2023/08/16 02:39:57;;;;;;;13.10;8.88;;;;;;;19.20;64.53;100609.84;1823662;78;25546;-45
2023/08/16 02:42:23;;;;;;;11.85;8.35;;;;;;;19.15;64.31;100606.61;1823663;78;25493;-44
2023/08/16 02:44:49;;;;;;;14.23;8.88;;;;;;;19.12;64.67;100603.20;1823746;78;25609;-43
2023/08/16 02:47:15;;;;;;;15.03;9.30;;;;;;;19.07;64.88;100605.68;1803254;78;28161;-43
2023/08/16 02:49:42;;;;;;;13.13;9.05;;;;;;;19.05;65.07;100607.96;1823713;78;25407;-43
2023/08/16 02:52:08;;;;;;;13.55;8.88;;;;;;;19.01;65.20;100607.88;1823783;78;25347;-43
2023/08/16 02:54:34;;;;;;;10.32;8.73;;;;;;;18.99;65.12;100606.67;1823752;78;25490;-42
2023/08/16 02:57:00;;;;;;;18.15;8.75;;;;;;;18.94;64.96;100606.37;1823798;78;25546;-42
2023/08/16 02:59:26;;;;;;;13.78;8.53;;;;;;;18.91;65.49;100607.66;1827338;78;27550;-41
2023/08/16 03:01:52;;;;;;;12.15;8.33;;;;;;;18.88;65.19;100605.05;1829856;77;26005;-41
2023/08/16 03:04:19;;;;;;;13.98;9.18;;;;;;;18.87;65.41;100606.80;1829885;78;25541;-41
2023/08/16 03:06:45;;;;;;;12.68;9.55;;;;;;;18.82;65.70;100609.20;1829842;77;25474;-42
2023/08/16 03:09:11;;;;;;;15.18;8.73;;;;;;;18.79;65.59;100612.66;1829923;77;25361;-42
2023/08/16 03:11:37;;;;;;;9.65;8.63;;;;;;;18.76;65.70;100612.80;1829917;78;27457;-43
2023/08/16 03:14:04;;;;;;;12.45;9.48;;;;;;;18.75;65.89;100618.05;1829828;77;25597;-41
2023/08/16 03:16:31;;;;;;;20.75;9.00;;;;;;;18.73;66.06;100623.66;1841362;77;25655;-41
2023/08/16 03:19:00;;;;;;;12.35;9.05;;;;;;;18.70;66.03;100616.95;1829850;78;25509;-42
2023/08/16 03:21:26;;;;;;;11.38;8.98;;;;;;;18.69;66.49;100616.73;1829894;77;25384;-41
2023/08/16 03:23:53;;;;;;;12.40;9.48;;;;;;;18.65;66.44;100611.17;1829885;78;29595;-45
2023/08/16 03:26:19;;;;;;;14.78;9.98;;;;;;;18.64;66.70;100612.89;1829838;78;25587;-42
2023/08/16 03:28:45;;;;;;;16.42;10.35;;;;;;;18.64;66.97;100608.78;1829898;78;25416;-41
2023/08/16 03:31:11;;;;;;;13.08;10.00;;;;;;;18.61;67.04;100611.67;1829867;78;25538;-41
2023/08/16 03:33:37;;;;;;;14.43;10.38;;;;;;;18.61;67.14;100611.67;1829941;77;25539;-43
2023/08/16 03:36:05;;;;;;;12.88;9.38;;;;;;;18.64;67.44;100612.89;1829885;78;27444;-41
2023/08/16 03:38:31;;;;;;;14.23;9.68;;;;;;;18.65;67.33;100612.54;1841253;77;25605;-43
2023/08/16 03:40:57;;;;;;;14.83;10.63;;;;;;;18.69;67.42;100609.87;1829850;77;25604;-41
2023/08/16 03:43:23;;;;;;;17.77;9.28;;;;;;;18.71;67.72;100615.82;1829846;78;25614;-44
2023/08/16 03:45:49;;;;;;;11.38;9.70;;;;;;;18.72;67.53;100611.91;1829899;77;25356;-42
2023/08/16 03:48:15;;;;;;;15.68;8.83;;;;;;;18.75;67.69;100619.42;1829899;78;27471;-42
2023/08/16 03:50:42;;;;;;;10.55;9.23;;;;;;;18.78;67.66;100620.09;1829840;78;25767;-42
2023/08/16 03:53:08;;;;;;;15.85;9.88;;;;;;;18.82;67.64;100619.61;1829942;77;25549;-42
2023/08/16 03:55:34;;;;;;;13.83;9.75;;;;;;;18.87;67.64;100625.40;1829944;78;26208;-42
2023/08/16 03:58:00;;;;;;;12.10;9.08;;;;;;;18.92;67.83;100628.45;1841331;77;25522;-44
2023/08/16 04:00:26;;;;;;;13.28;8.15;;;;;;;18.95;67.69;100626.34;1829792;78;27526;-43
2023/08/16 04:02:53;;;;;;;15.28;9.38;;;;;;;19.00;67.75;100621.95;1829801;77;25534;-43
2023/08/16 04:05:21;;;;;;;14.23;9.63;;;;;;;19.03;67.75;100620.68;1829904;77;25440;-42
2023/08/16 04:07:48;;;;;;;14.35;9.08;;;;;;;19.10;67.62;100631.56;1829966;78;25633;-42
2023/08/16 04:10:14;;;;;;;13.88;9.75;;;;;;;19.10;67.68;100630.20;1829917;78;25381;-45
2023/08/16 04:12:40;;;;;;;13.20;8.65;;;;;;;19.14;67.54;100632.45;1829894;77;27532;-41
2023/08/16 04:15:09;;;;;;;14.87;9.43;;;;;;;19.17;67.61;100630.34;1829784;77;25597;-42
2023/08/16 04:17:36;;;;;;;13.05;9.85;;;;;;;19.21;67.62;100632.02;1830135;77;25627;-42
2023/08/16 04:20:08;;;;;;;21.00;13.68;;;;;;;19.26;67.78;100632.31;1813535;78;25448;-42
2023/08/16 04:22:35;;;;;;;17.95;14.00;;;;;;;19.31;67.70;100638.89;1829914;78;25542;-43
2023/08/16 04:25:03;;;;;;;20.17;13.20;;;;;;;19.34;67.82;100634.05;1829885;77;27447;-42
2023/08/16 04:27:30;;;;;;;15.95;11.78;;;;;;;19.38;67.73;100630.80;1829766;77;25442;-43
2023/08/16 04:29:56;;;;;;;15.83;11.73;;;;;;;19.44;67.79;100630.51;1829846;77;25452;-42
2023/08/16 04:32:22;;;;;;;15.28;10.70;;;;;;;19.48;67.79;100635.48;1829793;77;25598;-42
2023/08/16 04:34:48;;;;;;;16.50;10.13;;;;;;;19.51;67.74;100638.32;1829851;77;25288;-42
2023/08/16 04:37:14;;;;;;;13.00;9.85;;;;;;;19.54;67.67;100638.94;1829842;78;27522;-43
2023/08/16 04:39:40;;;;;;;14.15;10.20;;;;;;;19.57;67.53;100644.30;1829746;78;25425;-42
2023/08/16 04:42:07;;;;;;;12.55;9.60;;;;;;;19.58;67.47;100646.69;1829824;77;25399;-42
2023/08/16 04:44:33;;;;;;;17.65;10.00;;;;;;;19.59;67.46;100650.22;1841265;77;26060;-43
2023/08/16 04:46:59;;;;;;;16.12;10.90;;;;;;;19.60;67.53;100651.81;1829811;78;25410;-42
2023/08/16 04:49:26;;;;;;;16.45;10.18;;;;;;;19.66;67.51;100659.17;1829808;78;27519;-42
2023/08/16 04:51:54;;;;;;;19.32;11.57;;;;;;;19.70;67.61;100663.58;1829691;78;25729;-42
2023/08/16 04:54:20;;;;;;;14.98;10.88;;;;;;;19.74;67.43;100665.83;1829829;78;25418;-42
2023/08/16 04:56:46;;;;;;;21.55;9.98;;;;;;;19.80;67.47;100666.33;1829765;77;25474;-43
2023/08/16 04:59:12;;;;;;;15.98;13.10;;;;;;;19.87;68.01;100660.18;1828351;78;25605;-45
2023/08/16 05:01:38;;;;;;;16.97;14.83;;;;;;;19.97;67.81;100658.22;1823747;78;27330;-45
2023/08/16 05:04:08;;;;;;;19.50;10.43;;;;;;;20.06;67.69;100646.44;1823623;78;25361;-45
2023/08/16 05:06:35;;;;;;;11.78;8.78;;;;;;;20.13;67.41;100649.30;1802920;78;25372;-42
2023/08/16 05:09:04;;;;;;;10.90;9.70;;;;;;;20.23;67.53;100648.50;1823662;78;26070;-46
2023/08/16 05:11:31;;;;;;;13.43;8.37;;;;;;;20.33;67.40;100653.38;1824031;78;25600;-45
2023/08/16 05:13:57;;;;;;;15.23;8.50;;;;;;;20.44;67.02;100661.20;1823764;78;27465;-45
2023/08/16 05:16:24;;;;;;;14.68;8.70;;;;;;;20.56;66.94;100655.31;1823639;78;27270;-45
2023/08/16 05:18:52;;;;;;;14.63;8.43;;;;;;;20.67;66.92;100644.73;1803304;78;25375;-44
2023/08/16 05:21:19;;;;;;;26.17;23.43;;;;;;;20.81;66.63;100640.62;1823871;78;27768;-42
2023/08/16 05:23:46;;;;;;;16.37;14.73;;;;;;;20.94;66.38;100646.09;1823696;78;25631;-41
2023/08/16 05:26:12;;;;;;;80.42;74.95;;;;;;;21.06;66.41;100639.58;1823640;78;27557;-44
2023/08/16 05:28:38;;;;;;;64.20;59.50;;;;;;;21.18;65.96;100641.30;1823656;78;27481;-44
2023/08/16 05:31:11;;;;;;;78.47;72.87;;;;;;;21.30;65.58;100640.28;1803177;78;25205;-44
2023/08/16 05:33:39;;;;;;;19.10;8.98;;;;;;;21.44;65.37;100634.97;1823406;78;26055;-41
2023/08/16 05:36:07;;;;;;;9.77;8.57;;;;;;;21.62;65.02;100625.56;1824013;78;25583;-42
2023/08/16 05:38:33;;;;;;;12.50;7.70;;;;;;;21.78;64.72;100634.40;1823654;78;27418;-43
2023/08/16 05:41:04;;;;;;;16.30;8.00;;;;;;;21.94;64.25;100631.41;1823596;78;25529;-43
2023/08/16 05:43:32;;;;;;;12.68;8.55;;;;;;;22.07;64.05;100639.41;1823732;78;25618;-41
2023/08/16 05:45:58;;;;;;;12.78;8.30;;;;;;;22.23;63.83;100638.56;1823648;78;25475;-42
2023/08/16 05:48:24;;;;;;;13.15;7.62;;;;;;;22.41;63.42;100638.75;1823738;78;25452;-42
2023/08/16 05:50:50;;;;;;;11.93;8.10;;;;;;;22.59;63.09;100632.58;1823682;78;28283;-42
2023/08/16 05:53:16;;;;;;;19.07;7.85;;;;;;;22.75;62.76;100636.63;1823515;78;25814;-42
2023/08/16 05:55:43;;;;;;;11.22;8.23;;;;;;;22.92;62.29;100627.48;1823728;78;25589;-44
2023/08/16 05:58:09;;;;;;;11.83;8.40;;;;;;;23.10;61.91;100624.27;1823737;78;25530;-42
2023/08/16 06:00:35;;;;;;;13.13;7.58;;;;;;;23.28;61.46;100617.44;1823594;78;25114;-43
2023/08/16 06:03:04;;;;;;;13.80;8.48;;;;;;;23.48;60.82;100612.39;1823646;78;27581;-43
2023/08/16 06:05:30;;;;;;;11.40;7.37;;;;;;;23.66;60.65;100602.76;1823830;78;25626;-42
2023/08/16 06:07:57;;;;;;;14.83;8.33;;;;;;;23.84;60.34;100610.34;1823714;78;25393;-42
2023/08/16 06:10:25;;;;;;;19.07;8.08;;;;;;;24.01;59.77;100611.55;1823660;78;25508;-44
2023/08/16 06:12:51;;;;;;;9.73;7.55;;;;;;;24.10;59.16;100611.16;1823697;78;25582;-42
2023/08/16 06:15:18;;;;;;;14.15;8.60;;;;;;;24.19;58.82;100612.92;1823692;78;27457;-43
2023/08/16 06:17:44;;;;;;;18.35;7.83;;;;;;;24.31;58.59;100620.81;1823622;77;25439;-44
2023/08/16 06:20:12;;;;;;;16.97;8.33;;;;;;;24.48;58.12;100619.83;1823798;78;25587;-44
2023/08/16 06:22:39;;;;;;;17.05;7.83;;;;;;;24.64;58.00;100620.24;1823848;78;25427;-43
2023/08/16 06:25:10;;;;;;;13.32;8.68;;;;;;;24.78;57.51;100625.73;1823913;78;25427;-43
2023/08/16 06:27:36;;;;;;;16.25;8.70;;;;;;;24.94;57.02;100625.33;1820593;78;27455;-43
2023/08/16 06:30:05;;;;;;;17.27;8.70;;;;;;;25.09;56.60;100622.50;1823749;78;25721;-43
2023/08/16 06:32:31;;;;;;;75.77;70.70;;;;;;;25.26;56.80;100625.81;1824094;78;25539;-42
2023/08/16 06:34:58;;;;;;;76.37;71.37;;;;;;;25.47;56.59;100625.52;1823826;78;26093;-43
2023/08/16 06:37:24;;;;;;;73.30;68.42;;;;;;;25.64;55.87;100622.47;1823869;77;25393;-42
2023/08/16 06:39:50;;;;;;;78.02;72.32;;;;;;;25.81;55.17;100626.33;1823918;78;27505;-41
